createdAt,value
2023-01-29T01:07:42.232Z,456.00
2023-01-29T01:08:42.299Z,456.00
2023-01-29T01:09:42.298Z,457.00
2023-01-29T01:10:42.353Z,456.00
2023-01-29T01:11:42.359Z,457.00
2023-01-29T01:12:42.368Z,458.00
2023-01-29T01:13:42.411Z,456.00
2023-01-29T01:14:42.456Z,458.00
2023-01-29T01:15:42.472Z,459.00
2023-01-29T01:16:42.491Z,458.00
2023-01-29T01:17:42.525Z,459.00
2023-01-29T01:18:42.545Z,461.00
2023-01-29T01:19:42.583Z,460.00
2023-01-29T01:20:42.624Z,457.00
2023-01-29T01:28:42.834Z,459.00
2023-01-29T01:29:42.840Z,457.00
2023-01-29T01:30:42.958Z,457.00
2023-01-29T01:31:42.971Z,457.00
2023-01-29T01:32:42.972Z,458.00
2023-01-29T01:33:43.030Z,458.00
2023-01-29T01:34:43.026Z,454.00
2023-01-29T01:35:43.031Z,452.00
2023-01-29T02:34:44.527Z,455.00
2023-01-29T02:35:44.556Z,453.00
2023-01-29T02:36:44.525Z,453.00
2023-01-29T02:37:44.570Z,453.00
2023-01-29T02:38:44.678Z,453.00
2023-01-29T02:39:44.589Z,452.00
2023-01-29T02:40:44.584Z,451.00
2023-01-29T02:41:44.645Z,453.00
2023-01-29T02:42:44.701Z,453.00
2023-01-29T02:43:44.652Z,454.00
2023-01-29T02:44:44.690Z,456.00
2023-01-29T02:45:44.737Z,455.00
2023-01-29T02:46:44.700Z,454.00
2023-01-29T02:47:44.717Z,451.00
2023-01-29T02:48:44.711Z,452.00
2023-01-29T02:49:44.769Z,453.00
2023-01-29T02:50:44.789Z,455.00
2023-01-29T02:51:44.780Z,457.00
2023-01-29T02:52:44.829Z,458.00
2023-01-29T02:53:44.818Z,457.00
2023-01-29T02:54:44.820Z,457.00
2023-01-29T02:55:44.798Z,457.00
2023-01-29T02:56:44.792Z,457.00
2023-01-29T02:57:44.851Z,455.00
2023-01-29T02:58:44.860Z,455.00
2023-01-29T02:59:44.894Z,457.00
2023-01-29T03:00:44.941Z,456.00
2023-01-29T03:01:44.942Z,455.00
2023-01-29T03:02:44.980Z,455.00
2023-01-29T03:03:45.003Z,456.00
2023-01-29T03:04:45.052Z,456.00
2023-01-29T03:05:45.097Z,454.00
2023-01-29T03:06:45.133Z,455.00
2023-01-29T03:07:45.187Z,453.00
2023-01-29T03:08:45.163Z,451.00
2023-01-29T03:09:45.195Z,454.00
2023-01-29T03:10:45.199Z,455.00
2023-01-29T03:11:45.225Z,455.00
2023-01-29T03:12:45.229Z,455.00
2023-01-29T03:13:45.218Z,455.00
2023-01-29T03:14:45.269Z,454.00
2023-01-29T03:15:45.231Z,456.00
2023-01-29T03:16:45.318Z,455.00
2023-01-29T03:17:45.263Z,455.00
2023-01-29T03:18:45.281Z,457.00
2023-01-29T03:19:45.322Z,456.00
2023-01-29T03:20:45.351Z,457.00
2023-01-29T03:21:45.344Z,454.00
2023-01-29T03:22:45.646Z,453.00
2023-01-29T03:23:45.367Z,452.00
2023-01-29T03:24:45.370Z,451.00
2023-01-29T03:25:45.441Z,448.00
2023-01-29T03:26:45.417Z,448.00
2023-01-29T03:27:45.490Z,450.00
2023-01-29T03:28:45.521Z,452.00
2023-01-29T03:29:45.519Z,453.00
2023-01-29T03:30:45.554Z,453.00
2023-01-29T03:31:45.658Z,452.00
2023-01-29T03:32:45.557Z,451.00
2023-01-29T03:33:45.629Z,451.00
2023-01-29T03:34:45.630Z,452.00
2023-01-29T03:35:45.647Z,453.00
2023-01-29T03:36:45.719Z,454.00
2023-01-29T03:37:45.707Z,454.00
2023-01-29T03:38:45.751Z,454.00
2023-01-29T03:39:45.756Z,455.00
2023-01-29T03:40:45.788Z,455.00
2023-01-29T03:41:45.840Z,456.00
2023-01-29T03:42:45.842Z,456.00
2023-01-29T03:43:45.858Z,454.00
2023-01-29T03:44:48.059Z,452.00
2023-01-29T03:45:45.953Z,453.00
2023-01-29T03:46:45.916Z,453.00
2023-01-29T03:47:45.913Z,453.00
2023-01-29T03:48:45.892Z,453.00
2023-01-29T03:49:45.880Z,455.00
2023-01-29T03:50:45.831Z,454.00
2023-01-29T03:51:45.831Z,455.00
2023-01-29T03:52:45.834Z,454.00
2023-01-29T03:53:45.847Z,455.00
2023-01-29T03:54:45.843Z,455.00
2023-01-29T03:55:45.813Z,454.00
2023-01-29T03:56:45.789Z,455.00
2023-01-29T03:57:45.817Z,454.00
2023-01-29T03:58:45.825Z,454.00
2023-01-29T03:59:45.809Z,452.00
2023-01-29T04:00:45.760Z,451.00
2023-01-29T04:01:45.827Z,451.00
2023-01-29T04:02:45.780Z,451.00
2023-01-29T04:03:45.813Z,451.00
2023-01-29T04:04:45.763Z,450.00
2023-01-29T04:05:45.737Z,450.00
2023-01-29T04:06:45.756Z,451.00
2023-01-29T04:07:45.701Z,453.00
2023-01-29T04:08:45.730Z,455.00
2023-01-29T04:09:45.753Z,457.00
2023-01-29T04:10:45.703Z,457.00
2023-01-29T04:11:45.699Z,455.00
2023-01-29T04:12:45.711Z,453.00
2023-01-29T04:13:45.671Z,453.00
2023-01-29T04:14:45.662Z,453.00
2023-01-29T04:15:45.659Z,456.00
2023-01-29T04:16:45.708Z,458.00
2023-01-29T04:17:45.635Z,456.00
2023-01-29T04:18:45.659Z,456.00
2023-01-29T04:19:45.599Z,455.00
2023-01-29T04:20:45.623Z,454.00
2023-01-29T04:21:45.617Z,452.00
2023-01-29T04:22:45.625Z,454.00
2023-01-29T04:23:45.578Z,456.00
2023-01-29T04:24:45.604Z,458.00
2023-01-29T04:25:45.553Z,457.00
2023-01-29T04:26:45.550Z,458.00
2023-01-29T04:27:45.613Z,457.00
2023-01-29T04:28:45.568Z,456.00
2023-01-29T04:29:45.570Z,457.00
2023-01-29T04:30:45.567Z,457.00
2023-01-29T04:31:45.567Z,456.00
2023-01-29T04:32:45.534Z,454.00
2023-01-29T04:33:45.552Z,453.00
2023-01-29T04:34:45.517Z,454.00
2023-01-29T04:35:45.496Z,453.00
2023-01-29T04:36:45.491Z,453.00
2023-01-29T04:37:45.529Z,451.00
2023-01-29T04:38:45.475Z,450.00
2023-01-29T04:39:45.432Z,453.00
2023-01-29T04:40:45.497Z,453.00
2023-01-29T04:41:45.433Z,450.00
2023-01-29T04:42:45.450Z,451.00
2023-01-29T04:43:45.454Z,453.00
2023-01-29T04:44:45.412Z,453.00
2023-01-29T04:45:45.420Z,451.00
2023-01-29T04:46:45.423Z,452.00
2023-01-29T04:47:45.549Z,453.00
2023-01-29T04:48:45.423Z,454.00
2023-01-29T04:49:45.398Z,456.00
2023-01-29T04:50:45.398Z,455.00
2023-01-29T04:51:45.373Z,455.00
2023-01-29T04:52:45.361Z,455.00
2023-01-29T04:53:45.332Z,456.00
2023-01-29T04:54:45.353Z,456.00
2023-01-29T04:55:45.393Z,455.00
2023-01-29T04:56:45.358Z,457.00
2023-01-29T04:57:45.400Z,458.00
2023-01-29T04:58:45.379Z,458.00
2023-01-29T04:59:45.454Z,460.00
2023-01-29T05:00:45.480Z,459.00
2023-01-29T05:01:45.618Z,458.00
2023-01-29T05:02:45.578Z,455.00
2023-01-29T05:03:45.531Z,455.00
2023-01-29T05:04:45.567Z,453.00
2023-01-29T05:05:45.585Z,451.00
2023-01-29T05:06:45.586Z,451.00
2023-01-29T05:07:45.608Z,451.00
2023-01-29T05:08:45.626Z,453.00
2023-01-29T05:09:45.624Z,450.00
2023-01-29T05:10:45.660Z,451.00
2023-01-29T05:11:45.703Z,450.00
2023-01-29T05:12:45.716Z,451.00
2023-01-29T05:13:45.757Z,452.00
2023-01-29T05:14:45.772Z,453.00
2023-01-29T05:15:45.864Z,452.00
2023-01-29T05:16:45.844Z,453.00
2023-01-29T05:17:45.899Z,453.00
2023-01-29T05:18:45.933Z,454.00
2023-01-29T05:19:45.965Z,454.00
2023-01-29T05:20:46.024Z,455.00
2023-01-29T05:21:46.010Z,454.00
2023-01-29T05:22:46.023Z,456.00
2023-01-29T05:23:46.036Z,456.00
2023-01-29T05:26:46.103Z,455.00
2023-01-29T05:27:46.156Z,457.00
2023-01-29T05:28:46.169Z,456.00
2023-01-29T05:29:46.138Z,457.00
2023-01-29T05:30:46.208Z,458.00
2023-01-29T05:31:46.283Z,462.00
2023-01-29T05:32:46.188Z,461.00
2023-01-29T05:33:46.268Z,459.00
2023-01-29T05:34:46.239Z,454.00
2023-01-29T05:35:46.281Z,453.00
2023-01-29T05:36:46.251Z,454.00
2023-01-29T05:37:46.284Z,455.00
2023-01-29T05:38:46.285Z,456.00
2023-01-29T05:39:46.316Z,455.00
2023-01-29T05:40:46.344Z,456.00
2023-01-29T05:41:46.359Z,455.00
2023-01-29T05:43:46.433Z,455.00
2023-01-29T05:44:46.490Z,455.00
2023-01-29T05:45:46.482Z,454.00
2023-01-29T05:46:46.522Z,455.00
2023-01-29T05:47:46.568Z,458.00
2023-01-29T05:48:46.596Z,459.00
2023-01-29T05:49:46.603Z,458.00
2023-01-29T05:50:46.650Z,456.00
2023-01-29T05:51:46.660Z,457.00
2023-01-29T05:52:46.669Z,459.00
2023-01-29T05:53:46.709Z,460.00
2023-01-29T05:54:46.762Z,460.00
2023-01-29T05:55:46.683Z,461.00
2023-01-29T05:56:46.718Z,460.00
2023-01-29T05:57:46.730Z,463.00
2023-01-29T05:58:46.733Z,463.00
2023-01-29T05:59:46.779Z,462.00
2023-01-29T06:00:48.210Z,459.00
2023-01-29T06:01:46.896Z,460.00
2023-01-29T06:02:46.885Z,459.00
2023-01-29T06:03:46.946Z,458.00
2023-01-29T06:04:46.910Z,460.00
2023-01-29T06:05:46.950Z,458.00
2023-01-29T06:24:15.035Z,468.00
2023-01-29T06:25:14.974Z,466.00
2023-01-29T06:26:14.987Z,463.00
2023-01-29T06:27:14.972Z,462.00
2023-01-29T06:28:14.943Z,463.00
2023-01-29T06:29:15.020Z,463.00
2023-01-29T06:30:15.126Z,462.00
2023-01-29T06:31:36.313Z,459.00
2023-01-29T06:32:16.043Z,458.00
2023-01-29T06:33:14.924Z,459.00
2023-01-29T06:34:14.897Z,460.00
2023-01-29T06:35:14.878Z,458.00
2023-01-29T06:36:14.872Z,459.00
2023-01-29T06:37:14.894Z,458.00
2023-01-29T06:38:14.868Z,459.00
2023-01-29T06:39:14.899Z,457.00
2023-01-29T06:40:15.226Z,458.00
2023-01-29T06:41:14.879Z,456.00
2023-01-29T06:42:14.841Z,455.00
2023-01-29T06:43:14.825Z,456.00
2023-01-29T06:44:14.840Z,455.00
2023-01-29T06:45:14.807Z,455.00
2023-01-29T06:46:14.806Z,455.00
2023-01-29T06:47:14.803Z,455.00
2023-01-29T06:48:14.802Z,458.00
2023-01-29T06:49:14.855Z,459.00
2023-01-29T06:50:15.266Z,457.00
2023-01-29T06:51:14.882Z,455.00
2023-01-29T06:52:14.866Z,455.00
2023-01-29T06:53:14.940Z,456.00
2023-01-29T06:54:14.948Z,455.00
2023-01-29T06:55:14.897Z,456.00
2023-01-29T06:56:14.930Z,458.00
2023-01-29T06:57:14.962Z,459.00
2023-01-29T06:58:14.990Z,457.00
2023-01-29T06:59:15.040Z,455.00
2023-01-29T07:00:15.295Z,452.00
2023-01-29T07:01:29.281Z,454.00
2023-01-29T07:02:16.145Z,454.00
2023-01-29T07:03:15.097Z,455.00
2023-01-29T07:04:15.057Z,456.00
2023-01-29T07:05:15.047Z,458.00
2023-01-29T07:06:15.052Z,455.00
2023-01-29T07:07:15.057Z,452.00
2023-01-29T07:08:15.046Z,452.00
2023-01-29T07:09:15.049Z,451.00
2023-01-29T07:10:15.396Z,452.00
2023-01-29T07:11:15.019Z,451.00
2023-01-29T07:12:14.996Z,452.00
2023-01-29T07:13:14.991Z,453.00
2023-01-29T07:14:15.022Z,456.00
2023-01-29T07:15:14.985Z,458.00
2023-01-29T07:16:15.031Z,459.00
2023-01-29T07:17:14.967Z,459.00
2023-01-29T07:18:14.966Z,457.00
2023-01-29T07:19:14.989Z,456.00
2023-01-29T07:20:15.384Z,457.00
2023-01-29T07:21:15.054Z,457.00
2023-01-29T07:22:15.102Z,455.00
2023-01-29T07:23:15.102Z,452.00
2023-01-29T07:24:15.196Z,452.00
2023-01-29T07:25:15.154Z,451.00
2023-01-29T07:26:15.206Z,451.00
2023-01-29T07:27:15.188Z,451.00
2023-01-29T07:28:15.241Z,451.00
2023-01-29T07:29:15.245Z,450.00
2023-01-29T07:30:15.681Z,450.00
2023-01-29T07:31:15.478Z,449.00
2023-01-29T07:32:15.385Z,450.00
2023-01-29T07:33:15.389Z,449.00
2023-01-29T07:34:15.374Z,448.00
2023-01-29T07:35:15.399Z,449.00
2023-01-29T07:36:15.441Z,449.00
2023-01-29T07:37:15.440Z,450.00
2023-01-29T07:38:15.440Z,451.00
2023-01-29T07:39:15.491Z,452.00
2023-01-29T07:40:15.843Z,451.00
2023-01-29T07:41:15.500Z,448.00
2023-01-29T07:42:15.510Z,447.00
2023-01-29T07:43:15.570Z,451.00
2023-01-29T07:44:15.538Z,454.00
2023-01-29T07:45:15.552Z,455.00
2023-01-29T07:46:15.661Z,457.00
2023-01-29T07:47:17.198Z,459.00
2023-01-29T07:48:15.593Z,457.00
2023-01-29T07:49:15.602Z,458.00
2023-01-29T07:50:16.032Z,457.00
2023-01-29T07:51:15.669Z,456.00
2023-01-29T07:52:15.741Z,455.00
2023-01-29T07:53:15.759Z,457.00
2023-01-29T07:54:15.797Z,455.00
2023-01-29T07:55:15.809Z,453.00
2023-01-29T07:56:15.817Z,453.00
2023-01-29T07:57:15.908Z,453.00
2023-01-29T07:58:15.915Z,451.00
2023-01-29T07:59:15.920Z,450.00
2023-01-29T08:00:16.339Z,452.00
2023-01-29T08:01:16.048Z,450.00
2023-01-29T08:02:16.034Z,451.00
2023-01-29T08:03:16.070Z,451.00
2023-01-29T08:04:16.049Z,450.00
2023-01-29T08:05:16.119Z,449.00
2023-01-29T08:06:16.121Z,448.00
2023-01-29T08:07:16.169Z,446.00
2023-01-29T08:08:16.187Z,444.00
2023-01-29T08:09:16.245Z,444.00
2023-01-29T08:10:16.676Z,445.00
2023-01-29T08:11:16.310Z,445.00
2023-01-29T08:12:16.353Z,447.00
2023-01-29T08:13:16.433Z,447.00
2023-01-29T08:14:16.466Z,448.00
2023-01-29T08:15:16.519Z,446.00
2023-01-29T08:16:16.614Z,444.00
2023-01-29T08:17:16.627Z,446.00
2023-01-29T08:18:16.718Z,448.00
2023-01-29T08:19:16.741Z,448.00
2023-01-29T08:20:17.207Z,450.00
2023-01-29T08:21:16.848Z,450.00
2023-01-29T08:22:16.931Z,452.00
2023-01-29T08:23:16.971Z,452.00
2023-01-29T08:24:17.137Z,453.00
2023-01-29T08:25:17.067Z,452.00
2023-01-29T08:26:17.098Z,452.00
2023-01-29T08:27:17.199Z,453.00
2023-01-29T08:28:17.219Z,453.00
2023-01-29T08:29:17.298Z,452.00
2023-01-29T08:30:18.432Z,453.00
2023-01-29T08:31:17.395Z,453.00
2023-01-29T08:32:17.473Z,451.00
2023-01-29T08:33:19.433Z,451.00
2023-01-29T08:34:17.523Z,450.00
2023-01-29T08:35:17.922Z,450.00
2023-01-29T08:36:17.504Z,449.00
2023-01-29T08:37:17.501Z,450.00
2023-01-29T08:38:17.524Z,453.00
2023-01-29T08:39:17.494Z,456.00
2023-01-29T08:40:17.676Z,455.00
2023-01-29T08:41:17.485Z,452.00
2023-01-29T08:42:17.462Z,450.00
2023-01-29T08:43:17.447Z,450.00
2023-01-29T08:44:17.469Z,447.00
2023-01-29T08:45:17.447Z,447.00
2023-01-29T08:46:17.483Z,443.00
2023-01-29T08:47:17.442Z,442.00
2023-01-29T08:48:17.438Z,444.00
2023-01-29T08:49:17.431Z,441.00
2023-01-29T08:50:17.963Z,442.00
2023-01-29T08:51:17.402Z,442.00
2023-01-29T08:52:17.361Z,442.00
2023-01-29T08:53:17.380Z,443.00
2023-01-29T08:54:17.395Z,443.00
2023-01-29T08:55:17.749Z,441.00
2023-01-29T08:56:17.392Z,440.00
2023-01-29T08:57:17.345Z,441.00
2023-01-29T08:58:17.344Z,441.00
2023-01-29T08:59:17.321Z,441.00
2023-01-29T09:00:17.749Z,442.00
2023-01-29T09:01:17.411Z,443.00
2023-01-29T09:02:17.376Z,444.00
2023-01-29T09:03:17.341Z,445.00
2023-01-29T09:04:17.330Z,447.00
2023-01-29T09:05:17.755Z,447.00
2023-01-29T09:06:17.296Z,447.00
2023-01-29T09:07:17.259Z,447.00
2023-01-29T09:08:17.303Z,448.00
2023-01-29T09:09:17.277Z,446.00
2023-01-29T09:10:17.269Z,444.00
2023-01-29T09:11:17.293Z,445.00
2023-01-29T09:12:17.259Z,442.00
2023-01-29T09:13:17.245Z,440.00
2023-01-29T09:14:17.261Z,442.00
2023-01-29T09:15:17.540Z,443.00
2023-01-29T09:16:17.268Z,443.00
2023-01-29T09:17:17.234Z,443.00
2023-01-29T09:18:17.248Z,445.00
2023-01-29T09:19:17.272Z,447.00
2023-01-29T09:20:17.290Z,447.00
2023-01-29T09:21:17.363Z,449.00
2023-01-29T09:22:17.411Z,447.00
2023-01-29T09:23:17.443Z,445.00
2023-01-29T09:24:17.504Z,445.00
2023-01-29T09:25:17.930Z,445.00
2023-01-29T09:26:17.620Z,445.00
2023-01-29T09:27:17.643Z,443.00
2023-01-29T09:28:17.726Z,441.00
2023-01-29T09:29:17.804Z,439.00
2023-01-29T09:30:17.857Z,438.00
2023-01-29T09:31:18.091Z,438.00
2023-01-29T09:32:37.589Z,439.00
2023-01-29T09:33:18.898Z,438.00
2023-01-29T09:34:17.907Z,440.00
2023-01-29T09:35:18.153Z,442.00
2023-01-29T09:36:17.885Z,444.00
2023-01-29T09:37:17.886Z,445.00
2023-01-29T09:38:17.889Z,446.00
2023-01-29T09:39:17.863Z,446.00
2023-01-29T09:40:17.849Z,446.00
2023-01-29T09:41:17.857Z,445.00
2023-01-29T09:42:17.862Z,444.00
2023-01-29T09:43:17.838Z,443.00
2023-01-29T09:44:17.828Z,443.00
2023-01-29T09:45:18.275Z,444.00
2023-01-29T09:46:18.034Z,441.00
2023-01-29T09:47:18.004Z,442.00
2023-01-29T09:48:18.055Z,444.00
2023-01-29T09:49:18.145Z,445.00
2023-01-29T09:50:20.168Z,445.00
2023-01-29T09:51:18.223Z,447.00
2023-01-29T09:52:18.277Z,446.00
2023-01-29T09:53:18.352Z,448.00
2023-01-29T09:54:18.390Z,448.00
2023-01-29T09:55:18.675Z,450.00
2023-01-29T09:56:18.429Z,450.00
2023-01-29T09:57:18.417Z,448.00
2023-01-29T09:58:18.461Z,446.00
2023-01-29T09:59:18.485Z,447.00
2023-01-29T10:00:18.470Z,447.00
2023-01-29T10:01:18.589Z,447.00
2023-01-29T10:02:18.581Z,445.00
2023-01-29T10:03:18.481Z,442.00
2023-01-29T10:04:18.537Z,442.00
2023-01-29T10:05:18.911Z,441.00
2023-01-29T10:06:18.504Z,443.00
2023-01-29T10:07:18.546Z,443.00
2023-01-29T10:08:18.593Z,445.00
2023-01-29T10:09:18.629Z,445.00
2023-01-29T10:10:18.618Z,443.00
2023-01-29T10:11:18.680Z,440.00
2023-01-29T10:12:18.704Z,442.00
2023-01-29T10:13:18.747Z,439.00
2023-01-29T10:14:18.810Z,440.00
2023-01-29T10:15:19.002Z,441.00
2023-01-29T10:16:18.810Z,441.00
2023-01-29T10:17:18.931Z,442.00
2023-01-29T10:18:18.821Z,442.00
2023-01-29T10:19:18.871Z,442.00
2023-01-29T10:20:18.874Z,442.00
2023-01-29T10:21:18.889Z,442.00
2023-01-29T10:22:18.976Z,443.00
2023-01-29T10:23:18.969Z,443.00
2023-01-29T10:24:19.012Z,445.00
2023-01-29T10:25:19.448Z,447.00
2023-01-29T10:26:19.073Z,447.00
2023-01-29T10:27:19.110Z,448.00
2023-01-29T10:28:19.100Z,447.00
2023-01-29T10:29:19.151Z,446.00
2023-01-29T10:30:19.219Z,444.00
2023-01-29T10:31:19.325Z,443.00
2023-01-29T10:32:19.218Z,444.00
2023-01-29T10:33:19.290Z,445.00
2023-01-29T10:34:19.324Z,448.00
2023-01-29T10:35:19.348Z,446.00
2023-01-29T10:36:19.391Z,447.00
2023-01-29T10:37:19.396Z,448.00
2023-01-29T10:38:19.429Z,444.00
2023-01-29T10:39:19.520Z,442.00
2023-01-29T10:40:19.615Z,443.00
2023-01-29T10:41:19.628Z,441.00
2023-01-29T10:42:19.656Z,441.00
2023-01-29T10:43:19.756Z,441.00
2023-01-29T10:44:19.804Z,441.00
2023-01-29T10:45:20.313Z,441.00
2023-01-29T10:46:19.875Z,442.00
2023-01-29T10:47:19.900Z,444.00
2023-01-29T10:48:19.920Z,444.00
2023-01-29T10:49:19.931Z,443.00
2023-01-29T10:50:19.999Z,443.00
2023-01-29T10:51:20.035Z,446.00
2023-01-29T10:52:20.094Z,449.00
2023-01-29T10:53:20.134Z,450.00
2023-01-29T10:54:20.216Z,449.00
2023-01-29T10:55:20.211Z,449.00
2023-01-29T10:56:22.974Z,447.00
2023-01-29T10:57:20.244Z,446.00
2023-01-29T10:58:20.257Z,444.00
2023-01-29T10:59:20.262Z,443.00
2023-01-29T11:00:20.225Z,444.00
2023-01-29T11:01:20.367Z,444.00
2023-01-29T11:02:20.284Z,446.00
2023-01-29T11:03:28.083Z,446.00
2023-01-29T11:04:21.242Z,446.00
2023-01-29T11:05:20.198Z,444.00
2023-01-29T11:06:20.213Z,442.00
2023-01-29T11:07:20.236Z,442.00
2023-01-29T11:08:20.205Z,442.00
2023-01-29T11:09:20.196Z,442.00
2023-01-29T11:10:20.795Z,441.00
2023-01-29T11:11:20.160Z,441.00
2023-01-29T11:12:21.707Z,440.00
2023-01-29T11:13:20.329Z,441.00
2023-01-29T11:14:20.308Z,439.00
2023-01-29T11:15:20.277Z,437.00
2023-01-29T11:16:20.314Z,437.00
2023-01-29T11:17:20.357Z,437.00
2023-01-29T11:18:20.329Z,439.00
2023-01-29T11:19:20.673Z,440.00
2023-01-29T11:20:20.333Z,437.00
2023-01-29T11:21:20.363Z,437.00
2023-01-29T11:22:20.360Z,437.00
2023-01-29T11:23:20.351Z,437.00
2023-01-29T11:24:20.381Z,438.00
2023-01-29T11:25:20.399Z,436.00
2023-01-29T11:26:20.421Z,438.00
2023-01-29T11:27:20.383Z,437.00
2023-01-29T11:28:20.376Z,438.00
2023-01-29T11:29:20.414Z,439.00
2023-01-29T11:30:20.558Z,438.00
2023-01-29T11:31:20.493Z,437.00
2023-01-29T11:32:20.422Z,439.00
2023-01-29T11:33:20.445Z,438.00
2023-01-29T11:34:20.436Z,437.00
2023-01-29T11:35:20.448Z,436.00
2023-01-29T11:36:20.446Z,438.00
2023-01-29T11:37:20.455Z,438.00
2023-01-29T11:38:20.431Z,438.00
2023-01-29T11:39:20.520Z,440.00
2023-01-29T11:40:20.473Z,438.00
2023-01-29T11:41:20.551Z,437.00
2023-01-29T11:42:20.594Z,437.00
2023-01-29T11:43:20.599Z,436.00
2023-01-29T11:44:20.640Z,435.00
2023-01-29T11:45:20.677Z,435.00
2023-01-29T11:46:20.675Z,432.00
2023-01-29T11:47:20.663Z,434.00
2023-01-29T11:48:20.651Z,436.00
2023-01-29T11:49:21.121Z,435.00
2023-01-29T11:50:20.702Z,434.00
2023-01-29T11:51:20.662Z,435.00
2023-01-29T11:52:20.673Z,433.00
2023-01-29T11:53:20.663Z,433.00
2023-01-29T11:54:20.746Z,436.00
2023-01-29T11:55:20.641Z,438.00
2023-01-29T11:56:20.649Z,439.00
2023-01-29T11:57:20.652Z,442.00
2023-01-29T11:58:20.656Z,441.00
2023-01-29T11:59:20.634Z,441.00
2023-01-29T12:00:20.670Z,438.00
2023-01-29T12:01:20.689Z,440.00
2023-01-29T12:02:20.709Z,439.00
2023-01-29T12:03:21.753Z,439.00
2023-01-29T12:04:20.777Z,441.00
2023-01-29T12:05:20.834Z,441.00
2023-01-29T12:06:20.858Z,443.00
2023-01-29T12:07:20.870Z,442.00
2023-01-29T12:08:20.923Z,441.00
2023-01-29T12:09:20.937Z,443.00
2023-01-29T12:10:20.975Z,442.00
2023-01-29T12:11:21.030Z,441.00
2023-01-29T12:12:21.061Z,443.00
2023-01-29T12:13:21.111Z,441.00
2023-01-29T12:14:21.119Z,442.00
2023-01-29T12:15:21.161Z,443.00
2023-01-29T12:16:21.217Z,445.00
2023-01-29T12:17:21.255Z,445.00
2023-01-29T12:18:21.230Z,445.00
2023-01-29T12:19:21.292Z,444.00
2023-01-29T12:20:21.339Z,442.00
2023-01-29T12:21:21.358Z,440.00
2023-01-29T12:22:21.393Z,439.00
2023-01-29T12:23:21.460Z,440.00
2023-01-29T12:24:21.471Z,439.00
2023-01-29T12:25:21.491Z,439.00
2023-01-29T12:26:21.515Z,440.00
2023-01-29T12:27:21.571Z,442.00
2023-01-29T12:28:21.595Z,443.00
2023-01-29T12:29:21.622Z,442.00
2023-01-29T12:30:21.681Z,443.00
2023-01-29T12:31:21.716Z,447.00
2023-01-29T12:32:21.740Z,445.00
2023-01-29T12:33:21.773Z,446.00
2023-01-29T12:34:21.797Z,444.00
2023-01-29T12:35:21.823Z,444.00
2023-01-29T12:36:21.812Z,441.00
2023-01-29T12:37:21.832Z,440.00
2023-01-29T12:38:21.851Z,438.00
2023-01-29T12:39:21.831Z,437.00
2023-01-29T12:40:21.871Z,440.00
2023-01-29T12:41:21.840Z,442.00
2023-01-29T12:42:21.906Z,442.00
2023-01-29T12:43:21.916Z,444.00
2023-01-29T12:44:21.937Z,443.00
2023-01-29T12:45:22.014Z,440.00
2023-01-29T12:46:22.026Z,438.00
2023-01-29T12:47:22.085Z,439.00
2023-01-29T12:48:22.131Z,440.00
2023-01-29T12:49:22.176Z,441.00
2023-01-29T12:50:22.300Z,443.00
2023-01-29T12:51:22.209Z,441.00
2023-01-29T12:52:22.278Z,441.00
2023-01-29T12:53:22.309Z,444.00
2023-01-29T12:54:22.317Z,443.00
2023-01-29T12:55:22.374Z,446.00
2023-01-29T12:56:22.389Z,445.00
2023-01-29T12:57:22.446Z,446.00
2023-01-29T12:58:22.487Z,445.00
2023-01-29T12:59:22.509Z,443.00
2023-01-29T13:00:22.577Z,441.00
2023-01-29T13:01:22.704Z,443.00
2023-01-29T13:02:22.579Z,444.00
2023-01-29T13:03:22.726Z,444.00
2023-01-29T13:04:22.627Z,443.00
2023-01-29T13:05:22.650Z,443.00
2023-01-29T13:06:22.692Z,443.00
2023-01-29T13:07:22.693Z,444.00
2023-01-29T13:08:22.715Z,445.00
2023-01-29T13:09:22.715Z,444.00
2023-01-29T13:10:22.737Z,440.00
2023-01-29T13:11:22.727Z,441.00
2023-01-29T13:12:22.770Z,442.00
2023-01-29T13:13:22.763Z,442.00
2023-01-29T13:14:22.795Z,441.00
2023-01-29T13:15:22.830Z,440.00
2023-01-29T13:16:22.803Z,439.00
2023-01-29T13:17:22.835Z,439.00
2023-01-29T13:18:22.825Z,437.00
2023-01-29T13:19:22.873Z,436.00
2023-01-29T13:20:22.885Z,437.00
2023-01-29T13:21:22.918Z,436.00
2023-01-29T13:22:22.946Z,436.00
2023-01-29T13:23:22.973Z,437.00
2023-01-29T13:24:22.936Z,438.00
2023-01-29T13:25:22.939Z,439.00
2023-01-29T13:26:23.015Z,440.00
2023-01-29T13:27:23.007Z,440.00
2023-01-29T13:28:23.023Z,441.00
2023-01-29T13:29:23.051Z,443.00
2023-01-29T13:30:23.062Z,441.00
2023-01-29T13:31:23.203Z,440.00
2023-01-29T13:32:23.176Z,441.00
2023-01-29T13:33:23.187Z,441.00
2023-01-29T13:34:23.181Z,440.00
2023-01-29T13:35:23.228Z,442.00
2023-01-29T13:36:23.219Z,441.00
2023-01-29T13:37:23.287Z,443.00
2023-01-29T13:38:23.343Z,444.00
2023-01-29T13:39:23.387Z,444.00
2023-01-29T13:40:23.428Z,446.00
2023-01-29T13:41:23.453Z,444.00
2023-01-29T13:42:23.543Z,444.00
2023-01-29T13:43:23.577Z,444.00
2023-01-29T13:44:23.658Z,444.00
2023-01-29T13:45:23.689Z,445.00
2023-01-29T13:46:23.796Z,446.00
2023-01-29T13:47:23.803Z,445.00
2023-01-29T13:48:23.915Z,446.00
2023-01-29T13:49:23.951Z,445.00
2023-01-29T13:50:24.018Z,445.00
2023-01-29T13:51:24.081Z,445.00
2023-01-29T13:52:24.115Z,446.00
2023-01-29T13:53:24.216Z,447.00
2023-01-29T13:54:24.314Z,445.00
2023-01-29T13:55:24.308Z,444.00
2023-01-29T13:56:24.429Z,446.00
2023-01-29T13:57:24.460Z,446.00
2023-01-29T13:58:24.490Z,445.00
2023-01-29T13:59:24.540Z,445.00
2023-01-29T14:00:24.618Z,446.00
2023-01-29T14:01:24.671Z,447.00
2023-01-29T14:02:24.752Z,447.00
2023-01-29T14:03:24.788Z,446.00
2023-01-29T14:04:24.830Z,445.00
2023-01-29T14:05:24.895Z,446.00
2023-01-29T14:06:24.940Z,445.00
2023-01-29T14:07:25.006Z,444.00
2023-01-29T14:08:25.025Z,444.00
2023-01-29T14:09:25.104Z,446.00
2023-01-29T14:10:25.135Z,445.00
2023-01-29T14:11:25.187Z,446.00
2023-01-29T14:12:25.206Z,447.00
2023-01-29T14:13:25.259Z,447.00
2023-01-29T14:14:25.214Z,447.00
2023-01-29T14:15:25.597Z,448.00
2023-01-29T14:16:25.334Z,450.00
2023-01-29T14:17:25.318Z,450.00
2023-01-29T14:18:25.391Z,450.00
2023-01-29T14:19:25.483Z,448.00
2023-01-29T14:20:27.713Z,446.00
2023-01-29T14:21:26.432Z,445.00
2023-01-29T14:22:25.417Z,445.00
2023-01-29T14:23:25.426Z,444.00
2023-01-29T14:24:25.391Z,442.00
2023-01-29T14:25:25.426Z,443.00
2023-01-29T14:26:25.466Z,445.00
2023-01-29T14:27:25.383Z,445.00
2023-01-29T14:28:25.395Z,444.00
2023-01-29T14:29:34.182Z,444.00
2023-01-29T14:30:26.419Z,444.00
2023-01-29T14:31:25.542Z,444.00
2023-01-29T14:32:25.380Z,444.00
2023-01-29T14:33:25.337Z,447.00
2023-01-29T14:34:25.328Z,448.00
2023-01-29T14:35:25.345Z,449.00
2023-01-29T14:36:25.338Z,447.00
2023-01-29T14:37:25.320Z,446.00
2023-01-29T14:38:25.291Z,445.00
2023-01-29T14:39:25.282Z,444.00
2023-01-29T14:40:25.302Z,445.00
2023-01-29T14:41:25.266Z,446.00
2023-01-29T14:42:25.287Z,446.00
2023-01-29T14:43:25.273Z,445.00
2023-01-29T14:44:25.257Z,446.00
2023-01-29T14:45:25.263Z,447.00
2023-01-29T14:46:25.302Z,446.00
2023-01-29T14:47:25.236Z,445.00
2023-01-29T14:48:25.208Z,447.00
2023-01-29T14:49:25.227Z,448.00
2023-01-29T14:50:25.199Z,448.00
2023-01-29T14:51:25.215Z,448.00
2023-01-29T14:52:25.196Z,449.00
2023-01-29T14:53:25.221Z,450.00
2023-01-29T14:54:25.165Z,449.00
2023-01-29T14:55:25.193Z,449.00
2023-01-29T14:56:25.168Z,449.00
2023-01-29T14:57:25.166Z,449.00
2023-01-29T14:59:25.177Z,446.00
2023-01-29T15:00:25.166Z,445.00
2023-01-29T15:01:25.246Z,443.00
2023-01-29T15:02:25.224Z,447.00